Wentworth, South Dakota
Current Conditions -  °F | °C
As of 3:10 PM on Tuesday 27 Jan 2015 (Local Time) from KMDS Reporting Station
Overcast Overcast  
Wind Chill: 21°   Ceiling: 400
Heat Index: 32°   Visibility: 10mi
Dew Point: 32°   Wind: 16mph
Humidity: 100%   Direction: 140°SE
Pressure: 29.99"   Gusts: NA
Location:  44°N, 96.96°W
Report Text: KMDS 272110Z AUTO 14014KT 10SM OVC004 00/00 A2999 RMK AO2
Loading
Personal Weather Stations






























Interactive Weather Map New forecast layout! Learn more

10-Day Weather Forecast

Advertisements
Track Severe Weather on mobile